Limoges, France

11:03 AM CEST on September 26, 2016 (GMT +0200)
Route des Francines | | Change Station

Elev 1263 ft 45.88 °N, 1.16 °E | Updated 9 minutes ago

Clear
Clear
54.1 °F
Feels Like 54.1 °F
N
1.2
Wind Variable Wind from SE
Gusts 3.7 mph

Today
High -- | Low -- °F
--% Chance of Precip.
Yesterday
High -- | Low -- °F
Precip. -- in
Pressure 30.21 in
Visibility -9999.0 miles
Clouds
Dew Point 50 °F
Humidity 87%
Rainfall 0.00 in
Snow Depth Not available.
7:47 AM 7:44 PM
Waning Crescent, 20% visible
METAR LFBL 260830Z AUTO 08005KT CAVOK 12/10 Q1023 NOSIG
Pressure 30.21 in
Visibility -9999.0 miles
Clouds
Dew Point 50 °F
Humidity 87%
Rainfall 0.00 in
Snow Depth Not available.
7:47 AM 7:44 PM
Waning Crescent, 20% visible
METAR LFBL 260830Z AUTO 08005KT CAVOK 12/10 Q1023 NOSIG

10-Day Weather Forecast

×

Almanac

Astronomy

Sep. 26, 2016 Rise Set
Actual Time
Civil Twilight
Nautical Twilight
Astronomical Twilight
Moon
Length of Visible Light
Length of Day
Tomorrow will be .
, % of the Moon is Illuminated

Today's Extremes

Country Highs Country Lows

Community

WunderPhotos

Upload Photos

1,941,852 photos uploaded!

WunderBlog® & News

Nearby

Air Quality

  Air Quality AQ Index Pollutant
Not available.

Snow Depth

Station Depth Elevation

Earthquake Activity

City Distance Mag. Time & Date
Minimum magnitude displayed is 2.5.

Coastal Water Temperatures

Place Temperature

Stations

Nearby Weather Stations

Station Location Temp. Windchill Dew Point Humidity Wind Precip. Elev Updated Type